sensor_id;sensor_type;location;lat;lon;timestamp;pressure;altitude;pressure_sealevel;temperature;humidity
46087;BME280;31824;49.648;8.640;2023-01-29T00:01:49;101656.34;;;-0.63;100.00
46087;BME280;31824;49.648;8.640;2023-01-29T00:04:52;101651.31;;;-0.46;100.00
46087;BME280;31824;49.648;8.640;2023-01-29T00:07:57;101649.16;;;-0.54;100.00
46087;BME280;31824;49.648;8.640;2023-01-29T00:10:59;101649.13;;;-0.60;100.00
46087;BME280;31824;49.648;8.640;2023-01-29T00:14:01;101645.06;;;-0.69;100.00
46087;BME280;31824;49.648;8.640;2023-01-29T00:17:03;101641.94;;;-0.78;100.00
46087;BME280;31824;49.648;8.640;2023-01-29T00:20:06;101642.91;;;-0.77;100.00
46087;BME280;31824;49.648;8.640;2023-01-29T00:23:09;101652.59;;;-0.65;100.00
46087;BME280;31824;49.648;8.640;2023-01-29T00:26:11;101652.84;;;-0.63;100.00
46087;BME280;31824;49.648;8.640;2023-01-29T00:29:17;101652.03;;;-0.74;100.00
46087;BME280;31824;49.648;8.640;2023-01-29T00:32:19;101652.84;;;-0.63;100.00
46087;BME280;31824;49.648;8.640;2023-01-29T00:35:21;101654.47;;;-0.64;100.00
46087;BME280;31824;49.648;8.640;2023-01-29T00:38:24;101650.69;;;-0.66;100.00
46087;BME280;31824;49.648;8.640;2023-01-29T00:41:27;101652.34;;;-0.66;100.00
46087;BME280;31824;49.648;8.640;2023-01-29T00:44:49;101653.97;;;-0.67;100.00
46087;BME280;31824;49.648;8.640;2023-01-29T00:47:59;101654.72;;;-0.62;100.00
46087;BME280;31824;49.648;8.640;2023-01-29T00:51:02;101659.72;;;-0.53;100.00
46087;BME280;31824;49.648;8.640;2023-01-29T00:54:05;101657.38;;;-0.51;100.00
46087;BME280;31824;49.648;8.640;2023-01-29T00:57:07;101664.31;;;-0.61;100.00
46087;BME280;31824;49.648;8.640;2023-01-29T01:00:11;101669.00;;;-0.64;100.00
46087;BME280;31824;49.648;8.640;2023-01-29T01:03:13;101661.28;;;-0.59;100.00
46087;BME280;31824;49.648;8.640;2023-01-29T01:06:15;101672.47;;;-0.70;100.00
46087;BME280;31824;49.648;8.640;2023-01-29T01:09:18;101674.81;;;-0.71;100.00
46087;BME280;31824;49.648;8.640;2023-01-29T01:12:39;101665.78;;;-0.58;100.00
46087;BME280;31824;49.648;8.640;2023-01-29T01:15:40;101670.47;;;-0.55;100.00
46087;BME280;31824;49.648;8.640;2023-01-29T01:18:42;101663.53;;;-0.39;100.00
46087;BME280;31824;49.648;8.640;2023-01-29T01:21:44;101669.06;;;-0.53;100.00
46087;BME280;31824;49.648;8.640;2023-01-29T01:24:49;101658.50;;;-0.55;100.00
46087;BME280;31824;49.648;8.640;2023-01-29T01:27:51;101646.34;;;-0.50;100.00
46087;BME280;31824;49.648;8.640;2023-01-29T01:30:54;101652.19;;;-0.51;100.00
46087;BME280;31824;49.648;8.640;2023-01-29T01:33:55;101654.53;;;-0.53;100.00
46087;BME280;31824;49.648;8.640;2023-01-29T01:36:59;101659.91;;;-0.57;100.00
46087;BME280;31824;49.648;8.640;2023-01-29T01:40:02;101658.75;;;-0.53;100.00
46087;BME280;31824;49.648;8.640;2023-01-29T01:43:08;101661.06;;;-0.60;100.00
46087;BME280;31824;49.648;8.640;2023-01-29T01:46:10;101652.63;;;-0.59;100.00
46087;BME280;31824;49.648;8.640;2023-01-29T01:49:14;101647.72;;;-0.52;100.00
46087;BME280;31824;49.648;8.640;2023-01-29T01:52:17;101640.22;;;-0.51;100.00
46087;BME280;31824;49.648;8.640;2023-01-29T01:55:25;101646.56;;;-0.54;100.00
46087;BME280;31824;49.648;8.640;2023-01-29T01:58:32;101643.25;;;-0.53;100.00
46087;BME280;31824;49.648;8.640;2023-01-29T02:01:36;101631.06;;;-0.54;100.00
46087;BME280;31824;49.648;8.640;2023-01-29T02:04:44;101631.56;;;-0.51;100.00
46087;BME280;31824;49.648;8.640;2023-01-29T02:08:05;101628.25;;;-0.56;100.00
46087;BME280;31824;49.648;8.640;2023-01-29T02:11:26;101619.03;;;-0.65;100.00
46087;BME280;31824;49.648;8.640;2023-01-29T02:14:28;101625.06;;;-0.76;100.00
46087;BME280;31824;49.648;8.640;2023-01-29T02:17:32;101620.84;;;-0.75;100.00
46087;BME280;31824;49.648;8.640;2023-01-29T02:20:34;101618.94;;;-0.76;100.00
46087;BME280;31824;49.648;8.640;2023-01-29T02:23:49;101614.31;;;-0.73;100.00
46087;BME280;31824;49.648;8.640;2023-01-29T02:27:04;101612.16;;;-0.76;100.00
46087;BME280;31824;49.648;8.640;2023-01-29T02:30:16;101605.25;;;-0.92;100.00
46087;BME280;31824;49.648;8.640;2023-01-29T02:33:25;101598.22;;;-0.93;100.00
46087;BME280;31824;49.648;8.640;2023-01-29T02:36:34;101605.97;;;-0.93;100.00
46087;BME280;31824;49.648;8.640;2023-01-29T02:39:42;101605.16;;;-1.04;100.00
46087;BME280;31824;49.648;8.640;2023-01-29T02:42:51;101604.25;;;-1.04;100.00
46087;BME280;31824;49.648;8.640;2023-01-29T02:45:59;101604.81;;;-0.90;100.00
46087;BME280;31824;49.648;8.640;2023-01-29T02:49:08;101598.88;;;-1.00;100.00
46087;BME280;31824;49.648;8.640;2023-01-29T02:52:14;101592.28;;;-1.04;100.00
46087;BME280;31824;49.648;8.640;2023-01-29T02:55:22;101614.75;;;-1.08;100.00
46087;BME280;31824;49.648;8.640;2023-01-29T02:58:28;101606.97;;;-1.14;100.00
46087;BME280;31824;49.648;8.640;2023-01-29T03:01:37;101609.53;;;-1.20;100.00
46087;BME280;31824;49.648;8.640;2023-01-29T03:04:45;101608.53;;;-1.26;100.00
46087;BME280;31824;49.648;8.640;2023-01-29T03:07:52;101612.59;;;-1.16;100.00
46087;BME280;31824;49.648;8.640;2023-01-29T03:11:03;101615.81;;;-1.23;100.00
46087;BME280;31824;49.648;8.640;2023-01-29T03:14:08;101617.47;;;-1.24;100.00
46087;BME280;31824;49.648;8.640;2023-01-29T03:17:15;101626.84;;;-1.19;100.00
46087;BME280;31824;49.648;8.640;2023-01-29T03:20:22;101625.47;;;-1.16;100.00
46087;BME280;31824;49.648;8.640;2023-01-29T03:23:28;101631.09;;;-1.19;100.00
46087;BME280;31824;49.648;8.640;2023-01-29T03:26:51;101631.53;;;-1.22;100.00
46087;BME280;31824;49.648;8.640;2023-01-29T03:30:18;101635.03;;;-1.21;100.00
46087;BME280;31824;49.648;8.640;2023-01-29T03:34:05;101634.06;;;-1.27;100.00
46087;BME280;31824;49.648;8.640;2023-01-29T03:37:11;101631.13;;;-1.13;100.00
46087;BME280;31824;49.648;8.640;2023-01-29T03:40:16;101628.22;;;-1.26;100.00
46087;BME280;31824;49.648;8.640;2023-01-29T03:43:26;101635.22;;;-1.25;100.00
46087;BME280;31824;49.648;8.640;2023-01-29T03:46:37;101625.94;;;-1.19;100.00
46087;BME280;31824;49.648;8.640;2023-01-29T03:49:52;101635.03;;;-1.21;100.00
46087;BME280;31824;49.648;8.640;2023-01-29T03:53:03;101645.66;;;-1.14;100.00
46087;BME280;31824;49.648;8.640;2023-01-29T03:56:11;101645.06;;;-1.02;100.00
46087;BME280;31824;49.648;8.640;2023-01-29T03:59:21;101652.38;;;-0.93;100.00
46087;BME280;31824;49.648;8.640;2023-01-29T04:02:46;101652.19;;;-0.89;100.00
46087;BME280;31824;49.648;8.640;2023-01-29T04:05:54;101655.25;;;-0.86;100.00
46087;BME280;31824;49.648;8.640;2023-01-29T04:09:07;101644.91;;;-0.92;100.00
46087;BME280;31824;49.648;8.640;2023-01-29T04:12:15;101641.84;;;-0.95;100.00
46087;BME280;31824;49.648;8.640;2023-01-29T04:15:21;101638.22;;;-1.07;100.00
46087;BME280;31824;49.648;8.640;2023-01-29T04:18:26;101634.50;;;-1.03;100.00
46087;BME280;31824;49.648;8.640;2023-01-29T04:21:38;101627.91;;;-1.07;100.00
46087;BME280;31824;49.648;8.640;2023-01-29T04:24:41;101619.34;;;-1.17;100.00
46087;BME280;31824;49.648;8.640;2023-01-29T04:27:49;101624.50;;;-1.17;100.00
46087;BME280;31824;49.648;8.640;2023-01-29T04:30:58;101632.44;;;-1.21;100.00
46087;BME280;31824;49.648;8.640;2023-01-29T04:34:10;101639.47;;;-1.26;100.00
46087;BME280;31824;49.648;8.640;2023-01-29T04:37:18;101632.00;;;-1.19;100.00
46087;BME280;31824;49.648;8.640;2023-01-29T04:40:28;101622.13;;;-1.21;100.00
46087;BME280;31824;49.648;8.640;2023-01-29T04:43:38;101615.97;;;-1.33;100.00
46087;BME280;31824;49.648;8.640;2023-01-29T04:46:46;101607.28;;;-1.33;100.00
46087;BME280;31824;49.648;8.640;2023-01-29T04:49:56;101604.69;;;-1.33;100.00
46087;BME280;31824;49.648;8.640;2023-01-29T04:53:08;101584.38;;;-1.53;100.00
46087;BME280;31824;49.648;8.640;2023-01-29T04:56:18;101594.16;;;-1.62;100.00
46087;BME280;31824;49.648;8.640;2023-01-29T04:59:28;101601.75;;;-1.73;100.00
46087;BME280;31824;49.648;8.640;2023-01-29T05:02:32;101592.28;;;-1.63;100.00
46087;BME280;31824;49.648;8.640;2023-01-29T05:05:39;101587.47;;;-1.77;100.00
46087;BME280;31824;49.648;8.640;2023-01-29T05:08:43;101597.56;;;-1.94;100.00
46087;BME280;31824;49.648;8.640;2023-01-29T05:12:06;101606.94;;;-1.94;100.00
46087;BME280;31824;49.648;8.640;2023-01-29T05:15:13;101612.97;;;-1.99;100.00
46087;BME280;31824;49.648;8.640;2023-01-29T05:18:16;101614.16;;;-1.97;100.00
46087;BME280;31824;49.648;8.640;2023-01-29T05:21:18;101621.69;;;-1.93;100.00
46087;BME280;31824;49.648;8.640;2023-01-29T05:24:23;101626.59;;;-1.95;100.00
46087;BME280;31824;49.648;8.640;2023-01-29T05:27:31;101637.47;;;-1.86;100.00
46087;BME280;31824;49.648;8.640;2023-01-29T05:30:55;101646.00;;;-1.76;100.00
46087;BME280;31824;49.648;8.640;2023-01-29T05:33:57;101642.06;;;-1.74;100.00
46087;BME280;31824;49.648;8.640;2023-01-29T05:36:59;101632.09;;;-1.61;100.00
46087;BME280;31824;49.648;8.640;2023-01-29T05:40:02;101629.56;;;-1.55;100.00
46087;BME280;31824;49.648;8.640;2023-01-29T05:43:06;101627.19;;;-1.59;100.00
46087;BME280;31824;49.648;8.640;2023-01-29T05:46:14;101621.16;;;-1.54;100.00
46087;BME280;31824;49.648;8.640;2023-01-29T05:49:16;101604.84;;;-1.43;100.00
46087;BME280;31824;49.648;8.640;2023-01-29T05:52:18;101603.59;;;-1.51;100.00
46087;BME280;31824;49.648;8.640;2023-01-29T05:55:21;101610.41;;;-1.51;100.00
46087;BME280;31824;49.648;8.640;2023-01-29T05:58:23;101606.69;;;-1.48;100.00
46087;BME280;31824;49.648;8.640;2023-01-29T06:01:25;101614.44;;;-1.48;100.00
46087;BME280;31824;49.648;8.640;2023-01-29T06:04:27;101614.91;;;-1.45;100.00
46087;BME280;31824;49.648;8.640;2023-01-29T06:07:28;101620.72;;;-1.51;100.00
46087;BME280;31824;49.648;8.640;2023-01-29T06:10:31;101631.59;;;-1.43;100.00
46087;BME280;31824;49.648;8.640;2023-01-29T06:13:33;101623.66;;;-1.39;100.00
46087;BME280;31824;49.648;8.640;2023-01-29T06:16:55;101629.34;;;-1.30;100.00
46087;BME280;31824;49.648;8.640;2023-01-29T06:19:56;101626.31;;;-1.27;100.00
46087;BME280;31824;49.648;8.640;2023-01-29T06:22:58;101617.88;;;-1.32;100.00
46087;BME280;31824;49.648;8.640;2023-01-29T06:26:03;101618.31;;;-1.34;100.00
46087;BME280;31824;49.648;8.640;2023-01-29T06:29:05;101609.38;;;-1.37;100.00
46087;BME280;31824;49.648;8.640;2023-01-29T06:32:07;101609.06;;;-1.44;100.00
46087;BME280;31824;49.648;8.640;2023-01-29T06:35:09;101608.84;;;-1.45;100.00
46087;BME280;31824;49.648;8.640;2023-01-29T06:38:11;101610.22;;;-1.47;100.00
46087;BME280;31824;49.648;8.640;2023-01-29T06:41:17;101613.03;;;-1.46;100.00
46087;BME280;31824;49.648;8.640;2023-01-29T06:44:19;101605.63;;;-1.39;100.00
46087;BME280;31824;49.648;8.640;2023-01-29T06:47:21;101604.16;;;-1.42;100.00
46087;BME280;31824;49.648;8.640;2023-01-29T06:50:22;101605.94;;;-1.53;100.00
46087;BME280;31824;49.648;8.640;2023-01-29T06:53:24;101625.72;;;-1.42;100.00
46087;BME280;31824;49.648;8.640;2023-01-29T06:56:27;101620.16;;;-1.33;100.00
46087;BME280;31824;49.648;8.640;2023-01-29T06:59:29;101618.78;;;-1.31;100.00
46087;BME280;31824;49.648;8.640;2023-01-29T07:02:31;101624.63;;;-1.32;100.00
46087;BME280;31824;49.648;8.640;2023-01-29T07:05:33;101615.22;;;-1.38;100.00
46087;BME280;31824;49.648;8.640;2023-01-29T07:08:35;101609.84;;;-1.33;100.00
46087;BME280;31824;49.648;8.640;2023-01-29T07:11:39;101615.28;;;-1.32;100.00
46087;BME280;31824;49.648;8.640;2023-01-29T07:14:41;101627.16;;;-1.38;100.00
46087;BME280;31824;49.648;8.640;2023-01-29T07:17:43;101627.16;;;-1.38;100.00
46087;BME280;31824;49.648;8.640;2023-01-29T07:20:45;101615.44;;;-1.36;100.00
46087;BME280;31824;49.648;8.640;2023-01-29T07:23:46;101618.75;;;-1.37;100.00
46087;BME280;31824;49.648;8.640;2023-01-29T07:26:49;101622.47;;;-1.41;100.00
46087;BME280;31824;49.648;8.640;2023-01-29T07:29:51;101634.47;;;-1.36;100.00
46087;BME280;31824;49.648;8.640;2023-01-29T07:32:53;101623.50;;;-1.29;100.00
46087;BME280;31824;49.648;8.640;2023-01-29T07:35:55;101633.00;;;-1.39;100.00
46087;BME280;31824;49.648;8.640;2023-01-29T07:38:56;101642.16;;;-1.41;100.00
46087;BME280;31824;49.648;8.640;2023-01-29T07:41:59;101641.00;;;-1.38;100.00
46087;BME280;31824;49.648;8.640;2023-01-29T07:45:03;101647.16;;;-1.31;100.00
46087;BME280;31824;49.648;8.640;2023-01-29T07:48:06;101649.28;;;-1.29;100.00
46087;BME280;31824;49.648;8.640;2023-01-29T07:51:08;101661.00;;;-1.25;100.00
46087;BME280;31824;49.648;8.640;2023-01-29T07:54:10;101650.25;;;-1.23;100.00
46087;BME280;31824;49.648;8.640;2023-01-29T07:57:13;101655.41;;;-1.23;100.00
46087;BME280;31824;49.648;8.640;2023-01-29T08:00:16;101649.81;;;-1.20;100.00
46087;BME280;31824;49.648;8.640;2023-01-29T08:03:18;101647.06;;;-1.10;100.00
46087;BME280;31824;49.648;8.640;2023-01-29T08:06:21;101643.41;;;-1.01;100.00
46087;BME280;31824;49.648;8.640;2023-01-29T08:09:23;101650.38;;;-1.11;100.00
46087;BME280;31824;49.648;8.640;2023-01-29T08:12:26;101650.75;;;-0.93;100.00
46087;BME280;31824;49.648;8.640;2023-01-29T08:15:28;101651.50;;;-0.88;100.00
46087;BME280;31824;49.648;8.640;2023-01-29T08:18:30;101658.03;;;-0.90;100.00
46087;BME280;31824;49.648;8.640;2023-01-29T08:21:32;101647.75;;;-0.85;100.00
46087;BME280;31824;49.648;8.640;2023-01-29T08:24:33;101651.97;;;-0.85;100.00
46087;BME280;31824;49.648;8.640;2023-01-29T08:27:57;101649.72;;;-0.72;100.00
46087;BME280;31824;49.648;8.640;2023-01-29T08:30:58;101654.72;;;-0.62;100.00
46087;BME280;31824;49.648;8.640;2023-01-29T08:34:00;101664.66;;;-0.48;100.00
46087;BME280;31824;49.648;8.640;2023-01-29T08:37:02;101667.22;;;-0.54;100.00
46087;BME280;31824;49.648;8.640;2023-01-29T08:40:05;101671.06;;;-0.41;100.00
46087;BME280;31824;49.648;8.640;2023-01-29T08:43:12;101686.78;;;-0.39;100.00
46087;BME280;31824;49.648;8.640;2023-01-29T08:46:14;101691.00;;;-0.34;100.00
46087;BME280;31824;49.648;8.640;2023-01-29T08:49:16;101678.59;;;-0.37;100.00
46087;BME280;31824;49.648;8.640;2023-01-29T08:52:18;101662.06;;;-0.48;100.00
46087;BME280;31824;49.648;8.640;2023-01-29T08:55:19;101645.69;;;-0.43;100.00
46087;BME280;31824;49.648;8.640;2023-01-29T08:58:22;101623.34;;;-0.48;100.00
46087;BME280;31824;49.648;8.640;2023-01-29T09:01:24;101605.56;;;-0.36;100.00
46087;BME280;31824;49.648;8.640;2023-01-29T09:04:26;101611.69;;;-0.35;100.00
46087;BME280;31824;49.648;8.640;2023-01-29T09:07:28;101622.75;;;-0.19;100.00
46087;BME280;31824;49.648;8.640;2023-01-29T09:10:30;101626.31;;;-0.19;100.00
46087;BME280;31824;49.648;8.640;2023-01-29T09:13:33;101617.81;;;-0.23;100.00
46087;BME280;31824;49.648;8.640;2023-01-29T09:16:35;101622.59;;;-0.15;100.00
46087;BME280;31824;49.648;8.640;2023-01-29T09:19:37;101630.69;;;-0.35;100.00
46087;BME280;31824;49.648;8.640;2023-01-29T09:22:38;101638.81;;;0.01;100.00
46087;BME280;31824;49.648;8.640;2023-01-29T09:25:42;101625.97;;;0.12;100.00
46087;BME280;31824;49.648;8.640;2023-01-29T09:28:45;101635.56;;;0.13;100.00
46087;BME280;31824;49.648;8.640;2023-01-29T09:31:47;101646.88;;;0.20;100.00
46087;BME280;31824;49.648;8.640;2023-01-29T09:34:49;101657.75;;;0.45;100.00
46087;BME280;31824;49.648;8.640;2023-01-29T09:37:51;101658.66;;;0.23;100.00
46087;BME280;31824;49.648;8.640;2023-01-29T09:40:59;101664.28;;;0.21;100.00
46087;BME280;31824;49.648;8.640;2023-01-29T09:44:12;101653.50;;;0.35;100.00
46087;BME280;31824;49.648;8.640;2023-01-29T09:47:16;101660.25;;;0.17;100.00
46087;BME280;31824;49.648;8.640;2023-01-29T09:50:21;101664.28;;;0.21;100.00
46087;BME280;31824;49.648;8.640;2023-01-29T09:53:29;101676.91;;;0.08;100.00
46087;BME280;31824;49.648;8.640;2023-01-29T09:56:34;101683.03;;;0.08;100.00
46087;BME280;31824;49.648;8.640;2023-01-29T09:59:37;101688.69;;;0.23;100.00
46087;BME280;31824;49.648;8.640;2023-01-29T10:03:06;101695.56;;;0.33;100.00
46087;BME280;31824;49.648;8.640;2023-01-29T10:06:31;101691.06;;;0.27;100.00
46087;BME280;31824;49.648;8.640;2023-01-29T10:10:00;101692.50;;;0.30;100.00
46087;BME280;31824;49.648;8.640;2023-01-29T10:13:16;101690.81;;;0.20;100.00
46087;BME280;31824;49.648;8.640;2023-01-29T10:16:31;101670.69;;;0.40;100.00
46087;BME280;31824;49.648;8.640;2023-01-29T10:19:52;101668.56;;;0.48;100.00
46087;BME280;31824;49.648;8.640;2023-01-29T10:23:07;101665.50;;;0.34;100.00
46087;BME280;31824;49.648;8.640;2023-01-29T10:26:12;101660.34;;;0.45;100.00
46087;BME280;31824;49.648;8.640;2023-01-29T10:29:17;101654.47;;;0.52;100.00
46087;BME280;31824;49.648;8.640;2023-01-29T10:32:22;101647.41;;;0.40;100.00
46087;BME280;31824;49.648;8.640;2023-01-29T10:35:29;101649.25;;;0.24;100.00
46087;BME280;31824;49.648;8.640;2023-01-29T10:38:41;101638.91;;;0.24;100.00
46087;BME280;31824;49.648;8.640;2023-01-29T10:41:52;101635.31;;;0.01;100.00
46087;BME280;31824;49.648;8.640;2023-01-29T10:45:16;101624.56;;;0.26;100.00
46087;BME280;31824;49.648;8.640;2023-01-29T10:48:35;101619.22;;;0.58;100.00
46087;BME280;31824;49.648;8.640;2023-01-29T10:51:50;101612.88;;;0.67;100.00
46087;BME280;31824;49.648;8.640;2023-01-29T10:55:03;101600.88;;;0.51;100.00
46087;BME280;31824;49.648;8.640;2023-01-29T10:58:18;101594.78;;;0.56;100.00
46087;BME280;31824;49.648;8.640;2023-01-29T11:01:22;101586.75;;;0.49;100.00
46087;BME280;31824;49.648;8.640;2023-01-29T11:04:27;101582.31;;;0.42;100.00
46087;BME280;31824;49.648;8.640;2023-01-29T11:07:29;101586.91;;;-0.01;100.00
46087;BME280;31824;49.648;8.640;2023-01-29T11:10:36;101587.66;;;0.10;100.00
46087;BME280;31824;49.648;8.640;2023-01-29T11:13:42;101589.03;;;0.02;100.00
46087;BME280;31824;49.648;8.640;2023-01-29T11:16:47;101586.75;;;0.49;100.00
46087;BME280;31824;49.648;8.640;2023-01-29T11:19:52;101587.44;;;0.14;100.00
46087;BME280;31824;49.648;8.640;2023-01-29T11:22:56;101567.50;;;0.36;100.00
46087;BME280;31824;49.648;8.640;2023-01-29T11:25:59;101562.56;;;0.77;100.00
46087;BME280;31824;49.648;8.640;2023-01-29T11:29:01;101555.97;;;0.90;100.00
46087;BME280;31824;49.648;8.640;2023-01-29T11:32:04;101552.41;;;1.01;100.00
46087;BME280;31824;49.648;8.640;2023-01-29T11:35:19;101551.69;;;0.96;100.00
46087;BME280;31824;49.648;8.640;2023-01-29T11:38:23;101538.75;;;1.08;100.00
46087;BME280;31824;49.648;8.640;2023-01-29T11:41:25;101538.25;;;1.16;100.00
46087;BME280;31824;49.648;8.640;2023-01-29T11:44:30;101517.66;;;1.51;100.00
46087;BME280;31824;49.648;8.640;2023-01-29T11:47:32;101517.50;;;2.15;100.00
46087;BME280;31824;49.648;8.640;2023-01-29T11:50:35;101509.41;;;1.54;100.00
46087;BME280;31824;49.648;8.640;2023-01-29T11:53:39;101502.03;;;1.63;100.00
46087;BME280;31824;49.648;8.640;2023-01-29T11:56:42;101503.00;;;1.63;100.00
46087;BME280;31824;49.648;8.640;2023-01-29T11:59:49;101502.06;;;1.57;100.00
46087;BME280;31824;49.648;8.640;2023-01-29T12:03:15;101491.94;;;1.06;100.00
46087;BME280;31824;49.648;8.640;2023-01-29T12:06:22;101486.06;;;1.60;100.00
46087;BME280;31824;49.648;8.640;2023-01-29T12:09:26;101484.78;;;1.75;100.00
46087;BME280;31824;49.648;8.640;2023-01-29T12:12:33;101486.91;;;1.77;100.00
46087;BME280;31824;49.648;8.640;2023-01-29T12:15:38;101482.72;;;1.66;100.00
46087;BME280;31824;49.648;8.640;2023-01-29T12:18:42;101479.53;;;1.86;100.00
46087;BME280;31824;49.648;8.640;2023-01-29T12:21:47;101484.13;;;1.70;100.00
46087;BME280;31824;49.648;8.640;2023-01-29T12:24:55;101473.06;;;1.65;100.00
46087;BME280;31824;49.648;8.640;2023-01-29T12:28:02;101466.75;;;1.63;100.00
46087;BME280;31824;49.648;8.640;2023-01-29T12:31:18;101475.31;;;1.81;100.00
46087;BME280;31824;49.648;8.640;2023-01-29T12:34:26;101479.72;;;1.52;100.00
46087;BME280;31824;49.648;8.640;2023-01-29T12:37:37;101472.19;;;1.54;100.00
46087;BME280;31824;49.648;8.640;2023-01-29T12:40:43;101474.84;;;1.42;100.00
46087;BME280;31824;49.648;8.640;2023-01-29T12:43:48;101466.34;;;1.49;100.00
46087;BME280;31824;49.648;8.640;2023-01-29T12:46:54;101462.88;;;1.73;100.00
46087;BME280;31824;49.648;8.640;2023-01-29T12:50:02;101459.41;;;2.02;100.00
46087;BME280;31824;49.648;8.640;2023-01-29T12:53:12;101452.28;;;2.07;100.00
46087;BME280;31824;49.648;8.640;2023-01-29T12:56:25;101440.88;;;2.23;100.00
46087;BME280;31824;49.648;8.640;2023-01-29T12:59:32;101440.22;;;1.83;100.00
46087;BME280;31824;49.648;8.640;2023-01-29T13:02:41;101435.47;;;1.50;100.00
46087;BME280;31824;49.648;8.640;2023-01-29T13:05:46;101430.06;;;1.08;100.00
46087;BME280;31824;49.648;8.640;2023-01-29T13:08:54;101421.72;;;1.27;100.00
46087;BME280;31824;49.648;8.640;2023-01-29T13:12:02;101419.78;;;1.38;100.00
46087;BME280;31824;49.648;8.640;2023-01-29T13:15:16;101413.53;;;1.18;100.00
46087;BME280;31824;49.648;8.640;2023-01-29T13:18:35;101410.25;;;1.91;100.00
46087;BME280;31824;49.648;8.640;2023-01-29T13:21:40;101403.44;;;3.57;100.00
46087;BME280;31824;49.648;8.640;2023-01-29T13:24:45;101407.13;;;3.77;100.00
46087;BME280;31824;49.648;8.640;2023-01-29T13:28:04;101411.66;;;3.72;100.00
46087;BME280;31824;49.648;8.640;2023-01-29T13:31:11;101410.00;;;4.17;100.00
46087;BME280;31824;49.648;8.640;2023-01-29T13:34:15;101403.97;;;2.98;100.00
46087;BME280;31824;49.648;8.640;2023-01-29T13:37:26;101410.38;;;2.95;100.00
46087;BME280;31824;49.648;8.640;2023-01-29T13:40:32;101403.13;;;3.29;100.00
46087;BME280;31824;49.648;8.640;2023-01-29T13:43:37;101396.88;;;2.79;100.00
46087;BME280;31824;49.648;8.640;2023-01-29T13:46:40;101390.63;;;2.23;100.00
46087;BME280;31824;49.648;8.640;2023-01-29T13:49:45;101377.31;;;2.38;100.00
46087;BME280;31824;49.648;8.640;2023-01-29T13:52:53;101383.13;;;1.94;100.00
46087;BME280;31824;49.648;8.640;2023-01-29T13:56:27;101374.81;;;1.37;100.00
46087;BME280;31824;49.648;8.640;2023-01-29T13:59:49;101372.44;;;1.44;100.00
46087;BME280;31824;49.648;8.640;2023-01-29T14:06:41;101373.81;;;2.56;100.00
46087;BME280;31824;49.648;8.640;2023-01-29T14:13:33;101365.97;;;3.49;100.00
46087;BME280;31824;49.648;8.640;2023-01-29T14:16:36;101368.91;;;3.58;100.00
46087;BME280;31824;49.648;8.640;2023-01-29T14:19:45;101371.81;;;3.85;100.00
46087;BME280;31824;49.648;8.640;2023-01-29T14:22:52;101363.75;;;3.08;100.00
46087;BME280;31824;49.648;8.640;2023-01-29T14:25:57;101360.69;;;2.67;100.00
46087;BME280;31824;49.648;8.640;2023-01-29T14:29:04;101353.56;;;2.29;100.00
46087;BME280;31824;49.648;8.640;2023-01-29T14:32:11;101357.09;;;1.51;100.00
46087;BME280;31824;49.648;8.640;2023-01-29T14:35:18;101350.88;;;1.92;100.00
46087;BME280;31824;49.648;8.640;2023-01-29T14:38:22;101343.31;;;1.94;100.00
46087;BME280;31824;49.648;8.640;2023-01-29T14:41:28;101340.34;;;1.85;100.00
46087;BME280;31824;49.648;8.640;2023-01-29T14:44:56;101342.50;;;1.46;100.00
46087;BME280;31824;49.648;8.640;2023-01-29T14:48:36;101336.38;;;1.51;100.00
46087;BME280;31824;49.648;8.640;2023-01-29T14:51:43;101340.09;;;1.54;100.00
46087;BME280;31824;49.648;8.640;2023-01-29T14:54:47;101343.72;;;1.73;100.00
46087;BME280;31824;49.648;8.640;2023-01-29T14:57:51;101356.53;;;1.60;100.00
46087;BME280;31824;49.648;8.640;2023-01-29T15:00:57;101352.38;;;1.49;100.00
46087;BME280;31824;49.648;8.640;2023-01-29T15:04:02;101349.81;;;1.49;100.00
46087;BME280;31824;49.648;8.640;2023-01-29T15:07:05;101340.84;;;1.47;100.00
46087;BME280;31824;49.648;8.640;2023-01-29T15:10:16;101346.81;;;1.34;100.00
46087;BME280;31824;49.648;8.640;2023-01-29T15:13:31;101338.22;;;1.23;100.00
46087;BME280;31824;49.648;8.640;2023-01-29T15:16:45;101335.41;;;1.15;100.00
46087;BME280;31824;49.648;8.640;2023-01-29T15:19:49;101329.97;;;1.25;100.00
46087;BME280;31824;49.648;8.640;2023-01-29T15:22:51;101336.13;;;1.20;100.00
46087;BME280;31824;49.648;8.640;2023-01-29T15:25:54;101339.72;;;1.09;100.00
46087;BME280;31824;49.648;8.640;2023-01-29T15:28:58;101345.28;;;1.18;100.00
46087;BME280;31824;49.648;8.640;2023-01-29T15:32:13;101344.66;;;1.08;100.00
46087;BME280;31824;49.648;8.640;2023-01-29T15:35:25;101345.75;;;1.15;100.00
46087;BME280;31824;49.648;8.640;2023-01-29T15:38:29;101330.34;;;0.98;100.00
46087;BME280;31824;49.648;8.640;2023-01-29T15:41:31;101331.50;;;1.00;100.00
46087;BME280;31824;49.648;8.640;2023-01-29T15:44:33;101317.94;;;0.90;100.00
46087;BME280;31824;49.648;8.640;2023-01-29T15:52:19;101318.41;;;0.88;100.00
46087;BME280;31824;49.648;8.640;2023-01-29T15:55:22;101313.53;;;0.78;100.00
46087;BME280;31824;49.648;8.640;2023-01-29T15:58:28;101311.41;;;0.75;100.00
46087;BME280;31824;49.648;8.640;2023-01-29T16:01:33;101297.13;;;0.66;100.00
46087;BME280;31824;49.648;8.640;2023-01-29T16:04:35;101291.28;;;0.61;100.00
46087;BME280;31824;49.648;8.640;2023-01-29T16:07:38;101297.19;;;0.49;100.00
46087;BME280;31824;49.648;8.640;2023-01-29T16:10:41;101302.38;;;0.43;100.00
46087;BME280;31824;49.648;8.640;2023-01-29T16:13:43;101299.13;;;0.39;100.00
46087;BME280;31824;49.648;8.640;2023-01-29T16:16:47;101292.34;;;0.28;100.00
46087;BME280;31824;49.648;8.640;2023-01-29T16:19:56;101286.00;;;0.20;100.00
46087;BME280;31824;49.648;8.640;2023-01-29T16:23:00;101285.78;;;0.13;100.00